sensor_id;sensor_type;location;lat;lon;timestamp;P1;durP1;ratioP1;P2;durP2;ratioP2
18905;SDS011;9585;51.018;4.282;2023-05-24T00:00:55;6.50;;;2.08;;
18905;SDS011;9585;51.018;4.282;2023-05-24T00:03:24;5.13;;;1.90;;
18905;SDS011;9585;51.018;4.282;2023-05-24T00:05:52;3.58;;;1.77;;
18905;SDS011;9585;51.018;4.282;2023-05-24T00:08:21;5.95;;;1.80;;
18905;SDS011;9585;51.018;4.282;2023-05-24T00:10:49;6.85;;;2.03;;
18905;SDS011;9585;51.018;4.282;2023-05-24T00:13:16;6.93;;;2.47;;
18905;SDS011;9585;51.018;4.282;2023-05-24T00:15:44;4.30;;;2.03;;
18905;SDS011;9585;51.018;4.282;2023-05-24T00:18:11;6.45;;;2.03;;
18905;SDS011;9585;51.018;4.282;2023-05-24T00:20:39;6.68;;;2.10;;
18905;SDS011;9585;51.018;4.282;2023-05-24T00:23:06;9.10;;;2.83;;
18905;SDS011;9585;51.018;4.282;2023-05-24T00:25:35;6.18;;;2.10;;
18905;SDS011;9585;51.018;4.282;2023-05-24T00:28:02;5.97;;;2.35;;
18905;SDS011;9585;51.018;4.282;2023-05-24T00:30:29;5.47;;;2.10;;
18905;SDS011;9585;51.018;4.282;2023-05-24T00:33:06;6.20;;;2.38;;
18905;SDS011;9585;51.018;4.282;2023-05-24T00:35:33;4.68;;;2.25;;
18905;SDS011;9585;51.018;4.282;2023-05-24T00:38:01;6.50;;;2.20;;
18905;SDS011;9585;51.018;4.282;2023-05-24T00:40:28;5.00;;;2.17;;
18905;SDS011;9585;51.018;4.282;2023-05-24T00:42:57;6.57;;;2.50;;
18905;SDS011;9585;51.018;4.282;2023-05-24T00:45:27;6.53;;;2.25;;
18905;SDS011;9585;51.018;4.282;2023-05-24T00:47:55;5.70;;;2.55;;
18905;SDS011;9585;51.018;4.282;2023-05-24T00:50:22;6.88;;;2.47;;
18905;SDS011;9585;51.018;4.282;2023-05-24T00:52:50;5.57;;;2.78;;
18905;SDS011;9585;51.018;4.282;2023-05-24T00:55:18;6.50;;;3.10;;
18905;SDS011;9585;51.018;4.282;2023-05-24T00:57:45;4.35;;;2.58;;
18905;SDS011;9585;51.018;4.282;2023-05-24T01:00:14;6.80;;;2.78;;
18905;SDS011;9585;51.018;4.282;2023-05-24T01:02:42;5.85;;;2.63;;
18905;SDS011;9585;51.018;4.282;2023-05-24T01:05:12;5.50;;;2.55;;
18905;SDS011;9585;51.018;4.282;2023-05-24T01:07:48;4.70;;;2.20;;
18905;SDS011;9585;51.018;4.282;2023-05-24T01:10:24;5.70;;;2.40;;
18905;SDS011;9585;51.018;4.282;2023-05-24T01:12:58;5.95;;;2.45;;
18905;SDS011;9585;51.018;4.282;2023-05-24T01:15:32;7.00;;;2.50;;
18905;SDS011;9585;51.018;4.282;2023-05-24T01:18:06;6.68;;;2.90;;
18905;SDS011;9585;51.018;4.282;2023-05-24T01:20:38;6.20;;;2.95;;
18905;SDS011;9585;51.018;4.282;2023-05-24T01:23:08;8.13;;;2.67;;
18905;SDS011;9585;51.018;4.282;2023-05-24T01:25:45;6.10;;;2.50;;
18905;SDS011;9585;51.018;4.282;2023-05-24T01:28:21;7.18;;;2.60;;
18905;SDS011;9585;51.018;4.282;2023-05-24T01:30:49;8.07;;;2.70;;
18905;SDS011;9585;51.018;4.282;2023-05-24T01:33:17;5.72;;;2.50;;
18905;SDS011;9585;51.018;4.282;2023-05-24T01:35:44;4.90;;;2.40;;
18905;SDS011;9585;51.018;4.282;2023-05-24T01:38:12;7.40;;;2.65;;
18905;SDS011;9585;51.018;4.282;2023-05-24T01:40:40;5.18;;;2.40;;
18905;SDS011;9585;51.018;4.282;2023-05-24T01:43:14;6.32;;;3.05;;
18905;SDS011;9585;51.018;4.282;2023-05-24T01:45:49;6.80;;;2.55;;
18905;SDS011;9585;51.018;4.282;2023-05-24T01:48:24;7.22;;;3.13;;
18905;SDS011;9585;51.018;4.282;2023-05-24T01:50:58;8.85;;;3.15;;
18905;SDS011;9585;51.018;4.282;2023-05-24T01:53:32;7.78;;;3.08;;
18905;SDS011;9585;51.018;4.282;2023-05-24T01:56:05;7.03;;;2.58;;
18905;SDS011;9585;51.018;4.282;2023-05-24T01:58:32;7.70;;;2.83;;
18905;SDS011;9585;51.018;4.282;2023-05-24T02:01:05;5.60;;;2.50;;
18905;SDS011;9585;51.018;4.282;2023-05-24T02:03:32;6.97;;;2.60;;
18905;SDS011;9585;51.018;4.282;2023-05-24T02:06:02;6.55;;;2.90;;
18905;SDS011;9585;51.018;4.282;2023-05-24T02:08:29;6.10;;;3.03;;
18905;SDS011;9585;51.018;4.282;2023-05-24T02:10:56;5.45;;;2.67;;
18905;SDS011;9585;51.018;4.282;2023-05-24T02:13:24;6.57;;;2.58;;
18905;SDS011;9585;51.018;4.282;2023-05-24T02:15:51;7.13;;;3.00;;
18905;SDS011;9585;51.018;4.282;2023-05-24T02:18:20;8.35;;;3.13;;
18905;SDS011;9585;51.018;4.282;2023-05-24T02:20:47;7.28;;;3.25;;
18905;SDS011;9585;51.018;4.282;2023-05-24T02:23:15;6.63;;;3.00;;
18905;SDS011;9585;51.018;4.282;2023-05-24T02:25:42;4.82;;;2.70;;
18905;SDS011;9585;51.018;4.282;2023-05-24T02:28:10;5.80;;;3.20;;
18905;SDS011;9585;51.018;4.282;2023-05-24T02:30:37;9.50;;;3.03;;
18905;SDS011;9585;51.018;4.282;2023-05-24T02:33:08;6.90;;;2.75;;
18905;SDS011;9585;51.018;4.282;2023-05-24T02:35:38;6.13;;;3.20;;
18905;SDS011;9585;51.018;4.282;2023-05-24T02:38:05;6.78;;;3.05;;
18905;SDS011;9585;51.018;4.282;2023-05-24T02:40:33;8.18;;;3.50;;
18905;SDS011;9585;51.018;4.282;2023-05-24T02:43:01;9.63;;;3.38;;
18905;SDS011;9585;51.018;4.282;2023-05-24T02:45:28;8.52;;;3.33;;
18905;SDS011;9585;51.018;4.282;2023-05-24T02:47:55;8.10;;;3.22;;
18905;SDS011;9585;51.018;4.282;2023-05-24T02:50:23;6.53;;;3.58;;
18905;SDS011;9585;51.018;4.282;2023-05-24T02:52:52;11.55;;;3.50;;
18905;SDS011;9585;51.018;4.282;2023-05-24T02:55:19;4.38;;;3.10;;
18905;SDS011;9585;51.018;4.282;2023-05-24T02:57:47;7.35;;;3.72;;
18905;SDS011;9585;51.018;4.282;2023-05-24T03:00:14;6.68;;;3.33;;
18905;SDS011;9585;51.018;4.282;2023-05-24T03:02:42;4.40;;;2.92;;
18905;SDS011;9585;51.018;4.282;2023-05-24T03:05:11;6.22;;;3.25;;
18905;SDS011;9585;51.018;4.282;2023-05-24T03:07:39;8.63;;;3.15;;
18905;SDS011;9585;51.018;4.282;2023-05-24T03:10:08;7.28;;;3.10;;
18905;SDS011;9585;51.018;4.282;2023-05-24T03:12:36;7.10;;;3.40;;
18905;SDS011;9585;51.018;4.282;2023-05-24T03:15:04;8.23;;;3.67;;
18905;SDS011;9585;51.018;4.282;2023-05-24T03:17:32;9.65;;;3.90;;
18905;SDS011;9585;51.018;4.282;2023-05-24T03:20:00;8.52;;;4.10;;
18905;SDS011;9585;51.018;4.282;2023-05-24T03:22:29;7.20;;;3.45;;
18905;SDS011;9585;51.018;4.282;2023-05-24T03:24:57;7.85;;;3.30;;
18905;SDS011;9585;51.018;4.282;2023-05-24T03:27:26;6.75;;;3.22;;
18905;SDS011;9585;51.018;4.282;2023-05-24T03:29:53;7.18;;;3.47;;
18905;SDS011;9585;51.018;4.282;2023-05-24T03:32:21;6.55;;;3.70;;
18905;SDS011;9585;51.018;4.282;2023-05-24T03:34:48;9.05;;;3.90;;
18905;SDS011;9585;51.018;4.282;2023-05-24T03:37:16;8.85;;;3.58;;
18905;SDS011;9585;51.018;4.282;2023-05-24T03:39:43;5.45;;;3.25;;
18905;SDS011;9585;51.018;4.282;2023-05-24T03:42:11;5.05;;;3.17;;
18905;SDS011;9585;51.018;4.282;2023-05-24T03:44:42;6.32;;;3.60;;
18905;SDS011;9585;51.018;4.282;2023-05-24T03:47:09;9.10;;;3.60;;
18905;SDS011;9585;51.018;4.282;2023-05-24T03:49:37;7.40;;;3.05;;
18905;SDS011;9585;51.018;4.282;2023-05-24T03:52:04;8.88;;;3.78;;
18905;SDS011;9585;51.018;4.282;2023-05-24T03:54:32;9.88;;;4.22;;
18905;SDS011;9585;51.018;4.282;2023-05-24T03:56:59;6.60;;;4.03;;
18905;SDS011;9585;51.018;4.282;2023-05-24T03:59:27;8.68;;;3.60;;
18905;SDS011;9585;51.018;4.282;2023-05-24T04:01:56;8.75;;;3.80;;
18905;SDS011;9585;51.018;4.282;2023-05-24T04:04:24;7.25;;;3.63;;
18905;SDS011;9585;51.018;4.282;2023-05-24T04:06:51;7.45;;;3.47;;
18905;SDS011;9585;51.018;4.282;2023-05-24T04:09:21;6.90;;;3.85;;
18905;SDS011;9585;51.018;4.282;2023-05-24T04:11:49;7.63;;;3.75;;
18905;SDS011;9585;51.018;4.282;2023-05-24T04:14:16;6.18;;;3.58;;
18905;SDS011;9585;51.018;4.282;2023-05-24T04:16:44;8.32;;;3.92;;
18905;SDS011;9585;51.018;4.282;2023-05-24T04:19:13;6.88;;;3.83;;
18905;SDS011;9585;51.018;4.282;2023-05-24T04:21:41;6.25;;;4.25;;
18905;SDS011;9585;51.018;4.282;2023-05-24T04:24:09;5.65;;;3.30;;
18905;SDS011;9585;51.018;4.282;2023-05-24T04:26:36;8.27;;;3.90;;
18905;SDS011;9585;51.018;4.282;2023-05-24T04:29:06;7.28;;;4.30;;
18905;SDS011;9585;51.018;4.282;2023-05-24T04:31:34;9.80;;;4.03;;
18905;SDS011;9585;51.018;4.282;2023-05-24T04:34:02;6.68;;;3.33;;
18905;SDS011;9585;51.018;4.282;2023-05-24T04:36:33;5.22;;;3.30;;
18905;SDS011;9585;51.018;4.282;2023-05-24T04:39:01;5.45;;;3.33;;
18905;SDS011;9585;51.018;4.282;2023-05-24T04:41:29;5.38;;;3.47;;
18905;SDS011;9585;51.018;4.282;2023-05-24T04:43:59;6.50;;;3.58;;
18905;SDS011;9585;51.018;4.282;2023-05-24T04:46:27;7.18;;;3.60;;
18905;SDS011;9585;51.018;4.282;2023-05-24T04:48:55;5.88;;;3.38;;
18905;SDS011;9585;51.018;4.282;2023-05-24T04:51:22;5.07;;;2.90;;
18905;SDS011;9585;51.018;4.282;2023-05-24T04:53:52;5.65;;;3.00;;
18905;SDS011;9585;51.018;4.282;2023-05-24T04:56:19;7.25;;;3.20;;
18905;SDS011;9585;51.018;4.282;2023-05-24T04:58:47;7.72;;;3.50;;
18905;SDS011;9585;51.018;4.282;2023-05-24T05:01:15;6.65;;;3.35;;
18905;SDS011;9585;51.018;4.282;2023-05-24T05:03:43;5.68;;;3.28;;
18905;SDS011;9585;51.018;4.282;2023-05-24T05:06:10;5.10;;;3.00;;
18905;SDS011;9585;51.018;4.282;2023-05-24T05:08:39;5.82;;;3.45;;
18905;SDS011;9585;51.018;4.282;2023-05-24T05:11:08;7.20;;;3.72;;
18905;SDS011;9585;51.018;4.282;2023-05-24T05:13:36;4.97;;;3.17;;
18905;SDS011;9585;51.018;4.282;2023-05-24T05:16:03;7.53;;;3.50;;
18905;SDS011;9585;51.018;4.282;2023-05-24T05:18:31;6.47;;;3.45;;
18905;SDS011;9585;51.018;4.282;2023-05-24T05:20:59;7.88;;;3.65;;
18905;SDS011;9585;51.018;4.282;2023-05-24T05:23:27;8.05;;;3.55;;
18905;SDS011;9585;51.018;4.282;2023-05-24T05:26:00;7.50;;;3.20;;
18905;SDS011;9585;51.018;4.282;2023-05-24T05:28:29;8.50;;;3.20;;
18905;SDS011;9585;51.018;4.282;2023-05-24T05:30:56;6.45;;;2.50;;
18905;SDS011;9585;51.018;4.282;2023-05-24T05:33:24;7.43;;;2.63;;
18905;SDS011;9585;51.018;4.282;2023-05-24T05:35:51;5.38;;;2.55;;
18905;SDS011;9585;51.018;4.282;2023-05-24T05:38:19;6.30;;;2.72;;
18905;SDS011;9585;51.018;4.282;2023-05-24T05:40:46;6.45;;;2.60;;
18905;SDS011;9585;51.018;4.282;2023-05-24T05:43:14;5.93;;;2.55;;
18905;SDS011;9585;51.018;4.282;2023-05-24T05:45:44;5.18;;;2.20;;
18905;SDS011;9585;51.018;4.282;2023-05-24T05:48:12;5.30;;;2.55;;
18905;SDS011;9585;51.018;4.282;2023-05-24T05:50:40;8.45;;;2.90;;
18905;SDS011;9585;51.018;4.282;2023-05-24T05:53:07;6.18;;;2.50;;
18905;SDS011;9585;51.018;4.282;2023-05-24T05:55:35;7.57;;;2.58;;
18905;SDS011;9585;51.018;4.282;2023-05-24T05:58:02;8.20;;;2.75;;
18905;SDS011;9585;51.018;4.282;2023-05-24T06:00:30;7.63;;;2.47;;
18905;SDS011;9585;51.018;4.282;2023-05-24T06:02:59;7.25;;;1.92;;
18905;SDS011;9585;51.018;4.282;2023-05-24T06:05:26;4.50;;;2.10;;
18905;SDS011;9585;51.018;4.282;2023-05-24T06:07:53;6.95;;;2.25;;
18905;SDS011;9585;51.018;4.282;2023-05-24T06:10:21;6.55;;;2.25;;
18905;SDS011;9585;51.018;4.282;2023-05-24T06:12:48;5.47;;;2.08;;
18905;SDS011;9585;51.018;4.282;2023-05-24T06:15:16;7.18;;;2.70;;
18905;SDS011;9585;51.018;4.282;2023-05-24T06:17:47;6.35;;;2.33;;
18905;SDS011;9585;51.018;4.282;2023-05-24T06:20:17;5.55;;;1.98;;
18905;SDS011;9585;51.018;4.282;2023-05-24T06:22:44;7.55;;;2.42;;
18905;SDS011;9585;51.018;4.282;2023-05-24T06:25:14;6.75;;;2.10;;
18905;SDS011;9585;51.018;4.282;2023-05-24T06:27:43;6.72;;;2.40;;
18905;SDS011;9585;51.018;4.282;2023-05-24T06:30:11;6.97;;;2.65;;
18905;SDS011;9585;51.018;4.282;2023-05-24T06:32:41;6.32;;;2.13;;
18905;SDS011;9585;51.018;4.282;2023-05-24T06:35:12;8.85;;;2.38;;
18905;SDS011;9585;51.018;4.282;2023-05-24T06:37:41;6.95;;;2.40;;
18905;SDS011;9585;51.018;4.282;2023-05-24T06:40:09;7.05;;;2.53;;
18905;SDS011;9585;51.018;4.282;2023-05-24T06:42:37;7.15;;;2.20;;
18905;SDS011;9585;51.018;4.282;2023-05-24T06:45:09;7.82;;;2.55;;
18905;SDS011;9585;51.018;4.282;2023-05-24T06:47:37;7.50;;;2.20;;
18905;SDS011;9585;51.018;4.282;2023-05-24T06:50:06;7.32;;;2.00;;
18905;SDS011;9585;51.018;4.282;2023-05-24T06:52:37;7.28;;;2.80;;
18905;SDS011;9585;51.018;4.282;2023-05-24T06:55:07;6.93;;;2.53;;
18905;SDS011;9585;51.018;4.282;2023-05-24T06:57:35;11.25;;;3.80;;
18905;SDS011;9585;51.018;4.282;2023-05-24T07:00:02;7.80;;;3.35;;
18905;SDS011;9585;51.018;4.282;2023-05-24T07:02:34;7.65;;;3.30;;
18905;SDS011;9585;51.018;4.282;2023-05-24T07:05:01;11.23;;;3.88;;
18905;SDS011;9585;51.018;4.282;2023-05-24T07:07:30;6.25;;;2.75;;
18905;SDS011;9585;51.018;4.282;2023-05-24T07:09:57;6.15;;;2.80;;
18905;SDS011;9585;51.018;4.282;2023-05-24T07:12:27;9.13;;;3.13;;
18905;SDS011;9585;51.018;4.282;2023-05-24T07:14:56;9.27;;;3.25;;
18905;SDS011;9585;51.018;4.282;2023-05-24T07:17:25;9.82;;;3.25;;
18905;SDS011;9585;51.018;4.282;2023-05-24T07:19:52;9.90;;;3.97;;
18905;SDS011;9585;51.018;4.282;2023-05-24T07:22:20;8.70;;;3.25;;
18905;SDS011;9585;51.018;4.282;2023-05-24T07:24:48;11.05;;;3.70;;
18905;SDS011;9585;51.018;4.282;2023-05-24T07:27:16;9.43;;;3.30;;
18905;SDS011;9585;51.018;4.282;2023-05-24T07:29:45;9.75;;;3.45;;
18905;SDS011;9585;51.018;4.282;2023-05-24T07:32:14;11.00;;;3.97;;
18905;SDS011;9585;51.018;4.282;2023-05-24T07:34:42;9.90;;;3.95;;
18905;SDS011;9585;51.018;4.282;2023-05-24T07:37:10;9.23;;;3.78;;
18905;SDS011;9585;51.018;4.282;2023-05-24T07:39:37;9.95;;;3.85;;
18905;SDS011;9585;51.018;4.282;2023-05-24T07:42:05;8.68;;;3.70;;
18905;SDS011;9585;51.018;4.282;2023-05-24T07:44:33;7.63;;;3.40;;
18905;SDS011;9585;51.018;4.282;2023-05-24T07:47:02;7.80;;;3.08;;
18905;SDS011;9585;51.018;4.282;2023-05-24T07:49:30;10.30;;;4.10;;
18905;SDS011;9585;51.018;4.282;2023-05-24T07:51:57;10.75;;;3.80;;
18905;SDS011;9585;51.018;4.282;2023-05-24T07:54:25;8.60;;;3.70;;
18905;SDS011;9585;51.018;4.282;2023-05-24T07:56:52;9.38;;;3.63;;
18905;SDS011;9585;51.018;4.282;2023-05-24T07:59:21;9.02;;;3.85;;
18905;SDS011;9585;51.018;4.282;2023-05-24T08:01:49;9.15;;;3.60;;
18905;SDS011;9585;51.018;4.282;2023-05-24T08:04:19;10.00;;;3.72;;
18905;SDS011;9585;51.018;4.282;2023-05-24T08:06:48;9.88;;;3.95;;
18905;SDS011;9585;51.018;4.282;2023-05-24T08:09:15;9.02;;;3.15;;
18905;SDS011;9585;51.018;4.282;2023-05-24T08:11:43;7.85;;;3.33;;
18905;SDS011;9585;51.018;4.282;2023-05-24T08:14:11;11.00;;;3.35;;
18905;SDS011;9585;51.018;4.282;2023-05-24T08:16:38;8.25;;;3.28;;
18905;SDS011;9585;51.018;4.282;2023-05-24T08:19:06;8.95;;;3.55;;
18905;SDS011;9585;51.018;4.282;2023-05-24T08:21:35;10.00;;;3.60;;
18905;SDS011;9585;51.018;4.282;2023-05-24T08:24:07;11.77;;;4.25;;
18905;SDS011;9585;51.018;4.282;2023-05-24T08:26:34;8.30;;;3.50;;
18905;SDS011;9585;51.018;4.282;2023-05-24T08:29:02;7.43;;;3.30;;
18905;SDS011;9585;51.018;4.282;2023-05-24T08:31:32;8.90;;;3.70;;
18905;SDS011;9585;51.018;4.282;2023-05-24T08:34:00;6.82;;;2.80;;
18905;SDS011;9585;51.018;4.282;2023-05-24T08:36:28;8.00;;;3.05;;
18905;SDS011;9585;51.018;4.282;2023-05-24T08:38:57;9.68;;;3.85;;
18905;SDS011;9585;51.018;4.282;2023-05-24T08:41:27;8.10;;;3.05;;
18905;SDS011;9585;51.018;4.282;2023-05-24T08:44:01;7.07;;;2.80;;
18905;SDS011;9585;51.018;4.282;2023-05-24T08:46:32;7.68;;;2.55;;
18905;SDS011;9585;51.018;4.282;2023-05-24T08:49:01;8.30;;;2.97;;
18905;SDS011;9585;51.018;4.282;2023-05-24T08:51:31;10.60;;;2.65;;
18905;SDS011;9585;51.018;4.282;2023-05-24T08:54:04;7.82;;;2.92;;
18905;SDS011;9585;51.018;4.282;2023-05-24T08:56:33;6.20;;;2.50;;
18905;SDS011;9585;51.018;4.282;2023-05-24T08:59:02;8.35;;;2.78;;
18905;SDS011;9585;51.018;4.282;2023-05-24T09:01:30;6.75;;;2.40;;
18905;SDS011;9585;51.018;4.282;2023-05-24T09:04:00;7.30;;;2.45;;
18905;SDS011;9585;51.018;4.282;2023-05-24T09:06:32;6.90;;;2.58;;
18905;SDS011;9585;51.018;4.282;2023-05-24T09:09:02;6.13;;;2.70;;
18905;SDS011;9585;51.018;4.282;2023-05-24T09:11:33;6.13;;;2.83;;
18905;SDS011;9585;51.018;4.282;2023-05-24T09:14:01;5.90;;;2.58;;
18905;SDS011;9585;51.018;4.282;2023-05-24T09:16:30;7.75;;;2.63;;
18905;SDS011;9585;51.018;4.282;2023-05-24T09:19:02;5.38;;;2.33;;
18905;SDS011;9585;51.018;4.282;2023-05-24T09:21:30;5.93;;;2.40;;
18905;SDS011;9585;51.018;4.282;2023-05-24T09:23:58;8.90;;;2.83;;
18905;SDS011;9585;51.018;4.282;2023-05-24T09:26:28;8.50;;;2.92;;
18905;SDS011;9585;51.018;4.282;2023-05-24T09:28:56;6.15;;;2.72;;
18905;SDS011;9585;51.018;4.282;2023-05-24T09:31:31;9.52;;;2.80;;
18905;SDS011;9585;51.018;4.282;2023-05-24T09:33:59;10.73;;;2.60;;
18905;SDS011;9585;51.018;4.282;2023-05-24T09:36:27;6.25;;;2.58;;
18905;SDS011;9585;51.018;4.282;2023-05-24T09:39:06;6.25;;;2.75;;
18905;SDS011;9585;51.018;4.282;2023-05-24T09:41:47;6.63;;;2.75;;
18905;SDS011;9585;51.018;4.282;2023-05-24T09:44:23;6.90;;;2.53;;
18905;SDS011;9585;51.018;4.282;2023-05-24T09:46:51;10.50;;;2.80;;
18905;SDS011;9585;51.018;4.282;2023-05-24T09:49:20;6.70;;;2.72;;
18905;SDS011;9585;51.018;4.282;2023-05-24T09:51:48;8.73;;;2.80;;
18905;SDS011;9585;51.018;4.282;2023-05-24T09:54:17;7.57;;;2.63;;
18905;SDS011;9585;51.018;4.282;2023-05-24T09:56:47;7.32;;;2.72;;
18905;SDS011;9585;51.018;4.282;2023-05-24T10:02:09;6.47;;;3.10;;
18905;SDS011;9585;51.018;4.282;2023-05-24T10:04:37;5.80;;;2.28;;
18905;SDS011;9585;51.018;4.282;2023-05-24T10:07:05;5.53;;;2.25;;
18905;SDS011;9585;51.018;4.282;2023-05-24T10:09:36;12.73;;;2.95;;
18905;SDS011;9585;51.018;4.282;2023-05-24T10:12:07;6.18;;;2.00;;
18905;SDS011;9585;51.018;4.282;2023-05-24T10:14:39;6.18;;;2.45;;
18905;SDS011;9585;51.018;4.282;2023-05-24T10:17:07;4.97;;;2.05;;
18905;SDS011;9585;51.018;4.282;2023-05-24T10:19:36;5.93;;;2.22;;
18905;SDS011;9585;51.018;4.282;2023-05-24T10:22:07;4.82;;;2.33;;
18905;SDS011;9585;51.018;4.282;2023-05-24T10:24:45;6.40;;;2.25;;
18905;SDS011;9585;51.018;4.282;2023-05-24T10:27:27;5.68;;;2.13;;
18905;SDS011;9585;51.018;4.282;2023-05-24T10:30:03;5.78;;;2.30;;
18905;SDS011;9585;51.018;4.282;2023-05-24T10:32:40;6.65;;;2.08;;
18905;SDS011;9585;51.018;4.282;2023-05-24T10:35:10;5.90;;;2.35;;
18905;SDS011;9585;51.018;4.282;2023-05-24T10:37:40;6.05;;;2.33;;
18905;SDS011;9585;51.018;4.282;2023-05-24T10:40:18;6.78;;;2.55;;
18905;SDS011;9585;51.018;4.282;2023-05-24T10:42:47;6.40;;;2.00;;
18905;SDS011;9585;51.018;4.282;2023-05-24T10:45:28;5.68;;;2.17;;
18905;SDS011;9585;51.018;4.282;2023-05-24T10:48:16;6.05;;;2.25;;
18905;SDS011;9585;51.018;4.282;2023-05-24T10:56:59;6.38;;;2.10;;
18905;SDS011;9585;51.018;4.282;2023-05-24T10:59:31;4.93;;;1.48;;
18905;SDS011;9585;51.018;4.282;2023-05-24T11:02:04;7.95;;;2.30;;
18905;SDS011;9585;51.018;4.282;2023-05-24T11:04:40;5.50;;;2.58;;
18905;SDS011;9585;51.018;4.282;2023-05-24T11:07:12;5.80;;;2.20;;
18905;SDS011;9585;51.018;4.282;2023-05-24T11:09:41;8.15;;;2.25;;
18905;SDS011;9585;51.018;4.282;2023-05-24T11:12:13;6.40;;;2.78;;
18905;SDS011;9585;51.018;4.282;2023-05-24T11:14:46;8.38;;;2.53;;
18905;SDS011;9585;51.018;4.282;2023-05-24T11:17:15;6.22;;;2.10;;
18905;SDS011;9585;51.018;4.282;2023-05-24T11:19:45;4.38;;;2.10;;
18905;SDS011;9585;51.018;4.282;2023-05-24T11:22:13;8.00;;;2.58;;
18905;SDS011;9585;51.018;4.282;2023-05-24T11:24:44;8.07;;;2.50;;
18905;SDS011;9585;51.018;4.282;2023-05-24T11:27:13;5.03;;;2.40;;
18905;SDS011;9585;51.018;4.282;2023-05-24T11:29:44;5.68;;;2.40;;
18905;SDS011;9585;51.018;4.282;2023-05-24T11:32:15;5.05;;;2.22;;
18905;SDS011;9585;51.018;4.282;2023-05-24T11:34:49;7.18;;;2.35;;
18905;SDS011;9585;51.018;4.282;2023-05-24T11:37:16;4.50;;;2.15;;
18905;SDS011;9585;51.018;4.282;2023-05-24T11:39:47;5.85;;;2.00;;
18905;SDS011;9585;51.018;4.282;2023-05-24T11:42:17;7.88;;;2.50;;
18905;SDS011;9585;51.018;4.282;2023-05-24T11:44:50;7.25;;;2.22;;
18905;SDS011;9585;51.018;4.282;2023-05-24T11:47:20;4.47;;;1.95;;
18905;SDS011;9585;51.018;4.282;2023-05-24T11:49:49;4.43;;;1.80;;
18905;SDS011;9585;51.018;4.282;2023-05-24T11:52:18;5.35;;;2.58;;
18905;SDS011;9585;51.018;4.282;2023-05-24T11:54:48;6.95;;;2.60;;
18905;SDS011;9585;51.018;4.282;2023-05-24T11:57:21;3.95;;;2.30;;
18905;SDS011;9585;51.018;4.282;2023-05-24T11:59:59;8.48;;;2.67;;
18905;SDS011;9585;51.018;4.282;2023-05-24T12:02:30;7.78;;;2.63;;
18905;SDS011;9585;51.018;4.282;2023-05-24T12:05:07;7.53;;;2.50;;
18905;SDS011;9585;51.018;4.282;2023-05-24T12:07:36;5.63;;;2.40;;
18905;SDS011;9585;51.018;4.282;2023-05-24T12:10:05;7.15;;;2.38;;
18905;SDS011;9585;51.018;4.282;2023-05-24T12:12:34;7.53;;;2.38;;
18905;SDS011;9585;51.018;4.282;2023-05-24T12:15:05;12.48;;;2.85;;
18905;SDS011;9585;51.018;4.282;2023-05-24T12:17:36;7.93;;;2.70;;
18905;SDS011;9585;51.018;4.282;2023-05-24T12:20:08;7.70;;;2.40;;
18905;SDS011;9585;51.018;4.282;2023-05-24T12:22:39;5.03;;;2.38;;
18905;SDS011;9585;51.018;4.282;2023-05-24T12:25:15;5.90;;;2.50;;
18905;SDS011;9585;51.018;4.282;2023-05-24T12:27:45;7.00;;;2.35;;
18905;SDS011;9585;51.018;4.282;2023-05-24T12:30:15;5.15;;;2.10;;
18905;SDS011;9585;51.018;4.282;2023-05-24T12:32:46;5.15;;;2.08;;
18905;SDS011;9585;51.018;4.282;2023-05-24T12:35:14;5.80;;;2.45;;
18905;SDS011;9585;51.018;4.282;2023-05-24T12:37:43;6.35;;;2.33;;
18905;SDS011;9585;51.018;4.282;2023-05-24T12:40:14;7.22;;;2.90;;
18905;SDS011;9585;51.018;4.282;2023-05-24T12:42:44;6.28;;;2.50;;
18905;SDS011;9585;51.018;4.282;2023-05-24T12:45:17;5.85;;;2.45;;
18905;SDS011;9585;51.018;4.282;2023-05-24T12:47:50;5.43;;;2.30;;
18905;SDS011;9585;51.018;4.282;2023-05-24T12:50:17;4.93;;;2.17;;
18905;SDS011;9585;51.018;4.282;2023-05-24T12:52:45;5.70;;;2.40;;
18905;SDS011;9585;51.018;4.282;2023-05-24T12:55:13;3.83;;;2.00;;
18905;SDS011;9585;51.018;4.282;2023-05-24T12:57:42;6.18;;;2.17;;
18905;SDS011;9585;51.018;4.282;2023-05-24T13:00:19;7.57;;;2.50;;
18905;SDS011;9585;51.018;4.282;2023-05-24T13:02:47;6.50;;;2.58;;
18905;SDS011;9585;51.018;4.282;2023-05-24T13:05:18;6.43;;;2.70;;
18905;SDS011;9585;51.018;4.282;2023-05-24T13:07:47;8.23;;;2.83;;
18905;SDS011;9585;51.018;4.282;2023-05-24T13:10:16;5.22;;;2.20;;
18905;SDS011;9585;51.018;4.282;2023-05-24T13:12:50;6.10;;;2.50;;
18905;SDS011;9585;51.018;4.282;2023-05-24T13:15:24;3.42;;;2.15;;
18905;SDS011;9585;51.018;4.282;2023-05-24T13:17:52;5.15;;;2.78;;
18905;SDS011;9585;51.018;4.282;2023-05-24T13:20:20;5.45;;;2.60;;
18905;SDS011;9585;51.018;4.282;2023-05-24T13:22:48;6.25;;;2.40;;
18905;SDS011;9585;51.018;4.282;2023-05-24T13:25:16;4.97;;;2.50;;
18905;SDS011;9585;51.018;4.282;2023-05-24T13:27:46;6.80;;;2.67;;
18905;SDS011;9585;51.018;4.282;2023-05-24T13:30:14;7.68;;;2.80;;
18905;SDS011;9585;51.018;4.282;2023-05-24T13:32:53;4.88;;;2.45;;
18905;SDS011;9585;51.018;4.282;2023-05-24T13:35:22;5.95;;;2.45;;
18905;SDS011;9585;51.018;4.282;2023-05-24T13:37:50;6.38;;;2.50;;
18905;SDS011;9585;51.018;4.282;2023-05-24T13:40:20;6.32;;;2.28;;
18905;SDS011;9585;51.018;4.282;2023-05-24T13:42:49;6.25;;;2.55;;
18905;SDS011;9585;51.018;4.282;2023-05-24T13:45:16;8.55;;;2.97;;
18905;SDS011;9585;51.018;4.282;2023-05-24T13:47:44;7.72;;;3.03;;
18905;SDS011;9585;51.018;4.282;2023-05-24T13:50:17;8.95;;;2.83;;
18905;SDS011;9585;51.018;4.282;2023-05-24T13:52:48;7.70;;;2.65;;
18905;SDS011;9585;51.018;4.282;2023-05-24T13:55:15;5.32;;;2.45;;
18905;SDS011;9585;51.018;4.282;2023-05-24T13:57:46;6.75;;;2.53;;
18905;SDS011;9585;51.018;4.282;2023-05-24T14:00:29;6.13;;;2.70;;
18905;SDS011;9585;51.018;4.282;2023-05-24T14:02:57;5.07;;;2.60;;
18905;SDS011;9585;51.018;4.282;2023-05-24T14:05:26;9.70;;;2.97;;
18905;SDS011;9585;51.018;4.282;2023-05-24T14:07:55;7.13;;;2.92;;
18905;SDS011;9585;51.018;4.282;2023-05-24T14:10:30;8.20;;;2.83;;
18905;SDS011;9585;51.018;4.282;2023-05-24T14:13:00;7.70;;;2.90;;
18905;SDS011;9585;51.018;4.282;2023-05-24T14:15:28;6.28;;;2.40;;
18905;SDS011;9585;51.018;4.282;2023-05-24T14:17:56;7.60;;;2.63;;
18905;SDS011;9585;51.018;4.282;2023-05-24T14:20:25;7.07;;;2.80;;
18905;SDS011;9585;51.018;4.282;2023-05-24T14:22:55;5.93;;;2.60;;
18905;SDS011;9585;51.018;4.282;2023-05-24T14:25:23;5.10;;;2.47;;
18905;SDS011;9585;51.018;4.282;2023-05-24T14:27:50;5.63;;;2.17;;
18905;SDS011;9585;51.018;4.282;2023-05-24T14:30:19;7.05;;;2.72;;
18905;SDS011;9585;51.018;4.282;2023-05-24T14:32:49;5.68;;;2.30;;
18905;SDS011;9585;51.018;4.282;2023-05-24T14:35:16;5.38;;;2.88;;
18905;SDS011;9585;51.018;4.282;2023-05-24T14:37:48;7.97;;;2.72;;
18905;SDS011;9585;51.018;4.282;2023-05-24T14:40:15;5.38;;;2.40;;
18905;SDS011;9585;51.018;4.282;2023-05-24T14:42:46;4.63;;;2.38;;
18905;SDS011;9585;51.018;4.282;2023-05-24T14:45:14;4.72;;;2.33;;
18905;SDS011;9585;51.018;4.282;2023-05-24T14:47:47;6.75;;;2.85;;
18905;SDS011;9585;51.018;4.282;2023-05-24T14:50:14;7.00;;;2.53;;
18905;SDS011;9585;51.018;4.282;2023-05-24T14:52:42;7.80;;;2.45;;
18905;SDS011;9585;51.018;4.282;2023-05-24T14:55:11;6.53;;;2.30;;
18905;SDS011;9585;51.018;4.282;2023-05-24T14:57:39;7.50;;;2.30;;
18905;SDS011;9585;51.018;4.282;2023-05-24T15:00:07;6.38;;;2.30;;
18905;SDS011;9585;51.018;4.282;2023-05-24T15:02:37;6.85;;;2.55;;
18905;SDS011;9585;51.018;4.282;2023-05-24T15:05:07;5.85;;;2.45;;
18905;SDS011;9585;51.018;4.282;2023-05-24T15:07:44;5.35;;;2.33;;
18905;SDS011;9585;51.018;4.282;2023-05-24T15:10:16;5.25;;;2.25;;
18905;SDS011;9585;51.018;4.282;2023-05-24T15:12:44;6.60;;;2.80;;
18905;SDS011;9585;51.018;4.282;2023-05-24T15:15:12;7.28;;;2.60;;
18905;SDS011;9585;51.018;4.282;2023-05-24T15:17:40;7.10;;;2.78;;
18905;SDS011;9585;51.018;4.282;2023-05-24T15:20:13;6.03;;;2.67;;
18905;SDS011;9585;51.018;4.282;2023-05-24T15:22:40;8.10;;;2.53;;